This is the latest recevied weather packets stored in our database for station/object ALAKES. If no packets are shown the sender has not sent any weather packets the latest 10 day(s).
| Time | Temp. | Humidity | Pressure | Rain* | Wind** | Luminosity | Snow |
|---|---|---|---|---|---|---|---|
| 1788055042 | 3.89° C | 67% | - | 0 mm | - | - | - |
| 1788054661 | 4.44° C | 63% | - | 0 mm | - | - | - |
| 1788054420 | 4.44° C | 63% | - | 0 mm | - | - | - |
| 1788053788 | 4.44° C | 60% | - | 0 mm | - | - | - |
| 1788053162 | 4.44° C | 55% | - | 0 mm | - | - | - |
| 1788052539 | 5° C | 50% | - | 0 mm | - | - | - |
| 1788051919 | 6.11° C | 44% | - | 0 mm | - | - | - |
| 1788051285 | 6.67° C | 45% | - | 0 mm | - | - | - |
| 1788050663 | 6.67° C | 44% | - | 0 mm | - | - | - |
| 1788050041 | 7.22° C | 46% | - | 0 mm | - | - | - |
| 1788049419 | 7.22° C | 48% | - | 0 mm | - | - | - |
| 1788048795 | 7.22° C | 52% | - | 0 mm | - | - | - |
| 1788048173 | 6.67° C | 50% | - | 0 mm | - | - | - |
| 1788047542 | 7.78° C | 46% | - | 0 mm | - | - | - |
| 1788046922 | 8.33° C | 42% | - | 0 mm | - | - | - |
| 1788046300 | 8.33° C | 45% | - | 0 mm | - | - | - |
| 1788045674 | 8.89° C | 46% | - | 0 mm | - | - | - |
| 1788045056 | 8.89° C | 43% | - | 0 mm | - | - | - |
| 1788044436 | 8.33° C | 45% | - | 0 mm | - | - | - |
| 1788043806 | 7.78° C | 52% | - | 0 mm | - | - | - |
| 1788043180 | 7.78° C | 53% | - | 0 mm | - | - | - |
| 1788042560 | 7.78° C | 53% | - | 0 mm | - | - | - |
| 1788041932 | 7.78° C | 53% | - | 0 mm | - | - | - |
| 1788041312 | 8.89° C | 47% | - | 0 mm | - | - | - |
| 1788040682 | 8.89° C | 48% | - | 0 mm | - | - | - |
* Rain latest 24 hours (hover to see other rain measurements)
** Current wind speed in m/s (hover to see current wind gust speed)